sensor_id;sensor_type;location;lat;lon;timestamp;P1;durP1;ratioP1;P2;durP2;ratioP2
52057;SDS011;38063;53.210;6.504;2023-06-10T00:01:00;9.70;;;4.32;;
52057;SDS011;38063;53.210;6.504;2023-06-10T00:03:26;8.00;;;4.85;;
52057;SDS011;38063;53.210;6.504;2023-06-10T00:05:52;9.32;;;4.15;;
52057;SDS011;38063;53.210;6.504;2023-06-10T00:08:17;9.05;;;4.55;;
52057;SDS011;38063;53.210;6.504;2023-06-10T00:10:44;9.30;;;4.30;;
52057;SDS011;38063;53.210;6.504;2023-06-10T00:13:10;11.32;;;4.88;;
52057;SDS011;38063;53.210;6.504;2023-06-10T00:15:36;10.65;;;4.93;;
52057;SDS011;38063;53.210;6.504;2023-06-10T00:18:03;8.52;;;5.10;;
52057;SDS011;38063;53.210;6.504;2023-06-10T00:20:29;8.65;;;4.45;;
52057;SDS011;38063;53.210;6.504;2023-06-10T00:22:56;9.48;;;4.47;;
52057;SDS011;38063;53.210;6.504;2023-06-10T00:25:24;8.32;;;4.78;;
52057;SDS011;38063;53.210;6.504;2023-06-10T00:27:51;9.93;;;4.43;;
52057;SDS011;38063;53.210;6.504;2023-06-10T00:30:16;7.80;;;4.25;;
52057;SDS011;38063;53.210;6.504;2023-06-10T00:32:42;9.00;;;3.88;;
52057;SDS011;38063;53.210;6.504;2023-06-10T00:35:08;10.25;;;4.55;;
52057;SDS011;38063;53.210;6.504;2023-06-10T00:37:34;7.68;;;4.65;;
52057;SDS011;38063;53.210;6.504;2023-06-10T00:40:02;6.95;;;4.32;;
52057;SDS011;38063;53.210;6.504;2023-06-10T00:42:31;7.10;;;4.32;;
52057;SDS011;38063;53.210;6.504;2023-06-10T00:44:56;8.80;;;4.47;;
52057;SDS011;38063;53.210;6.504;2023-06-10T00:47:22;9.20;;;4.05;;
52057;SDS011;38063;53.210;6.504;2023-06-10T00:49:49;7.13;;;4.00;;
52057;SDS011;38063;53.210;6.504;2023-06-10T00:52:15;12.63;;;4.80;;
52057;SDS011;38063;53.210;6.504;2023-06-10T00:54:43;8.45;;;4.72;;
52057;SDS011;38063;53.210;6.504;2023-06-10T00:57:09;10.57;;;4.85;;
52057;SDS011;38063;53.210;6.504;2023-06-10T00:59:38;8.20;;;4.47;;
52057;SDS011;38063;53.210;6.504;2023-06-10T01:02:04;7.78;;;4.35;;
52057;SDS011;38063;53.210;6.504;2023-06-10T01:04:30;10.15;;;4.65;;
52057;SDS011;38063;53.210;6.504;2023-06-10T01:12:33;8.38;;;4.65;;
52057;SDS011;38063;53.210;6.504;2023-06-10T01:15:13;12.82;;;4.45;;
52057;SDS011;38063;53.210;6.504;2023-06-10T01:17:56;9.68;;;4.45;;
52057;SDS011;38063;53.210;6.504;2023-06-10T01:20:22;11.52;;;4.95;;
52057;SDS011;38063;53.210;6.504;2023-06-10T01:22:49;11.50;;;4.57;;
52057;SDS011;38063;53.210;6.504;2023-06-10T01:25:16;8.57;;;4.60;;
52057;SDS011;38063;53.210;6.504;2023-06-10T01:27:42;7.43;;;4.50;;
52057;SDS011;38063;53.210;6.504;2023-06-10T01:30:14;11.57;;;4.25;;
52057;SDS011;38063;53.210;6.504;2023-06-10T01:32:44;8.82;;;4.25;;
52057;SDS011;38063;53.210;6.504;2023-06-10T01:35:11;8.23;;;3.90;;
52057;SDS011;38063;53.210;6.504;2023-06-10T01:37:39;9.18;;;4.40;;
52057;SDS011;38063;53.210;6.504;2023-06-10T01:40:07;10.27;;;4.03;;
52057;SDS011;38063;53.210;6.504;2023-06-10T01:42:33;9.50;;;4.10;;
52057;SDS011;38063;53.210;6.504;2023-06-10T01:45:00;9.32;;;4.28;;
52057;SDS011;38063;53.210;6.504;2023-06-10T01:47:25;10.85;;;4.68;;
52057;SDS011;38063;53.210;6.504;2023-06-10T01:49:51;11.02;;;4.65;;
52057;SDS011;38063;53.210;6.504;2023-06-10T01:52:17;8.02;;;4.38;;
52057;SDS011;38063;53.210;6.504;2023-06-10T01:54:43;7.82;;;3.83;;
52057;SDS011;38063;53.210;6.504;2023-06-10T01:57:09;8.35;;;4.15;;
52057;SDS011;38063;53.210;6.504;2023-06-10T01:59:35;11.07;;;4.10;;
52057;SDS011;38063;53.210;6.504;2023-06-10T02:02:01;9.90;;;4.10;;
52057;SDS011;38063;53.210;6.504;2023-06-10T02:04:27;7.15;;;4.57;;
52057;SDS011;38063;53.210;6.504;2023-06-10T02:06:53;8.80;;;4.40;;
52057;SDS011;38063;53.210;6.504;2023-06-10T02:09:18;7.63;;;4.05;;
52057;SDS011;38063;53.210;6.504;2023-06-10T02:11:44;8.43;;;4.05;;
52057;SDS011;38063;53.210;6.504;2023-06-10T02:14:10;10.35;;;4.50;;
52057;SDS011;38063;53.210;6.504;2023-06-10T02:16:35;8.98;;;4.07;;
52057;SDS011;38063;53.210;6.504;2023-06-10T02:19:01;8.25;;;3.92;;
52057;SDS011;38063;53.210;6.504;2023-06-10T02:21:30;10.07;;;4.78;;
52057;SDS011;38063;53.210;6.504;2023-06-10T02:23:56;8.38;;;4.18;;
52057;SDS011;38063;53.210;6.504;2023-06-10T02:26:22;7.97;;;4.18;;
52057;SDS011;38063;53.210;6.504;2023-06-10T02:28:48;9.35;;;4.22;;
52057;SDS011;38063;53.210;6.504;2023-06-10T02:31:13;6.03;;;4.05;;
52057;SDS011;38063;53.210;6.504;2023-06-10T02:33:39;8.73;;;4.10;;
52057;SDS011;38063;53.210;6.504;2023-06-10T02:36:05;9.32;;;4.00;;
52057;SDS011;38063;53.210;6.504;2023-06-10T02:38:31;10.05;;;4.22;;
52057;SDS011;38063;53.210;6.504;2023-06-10T02:40:57;8.60;;;4.00;;
52057;SDS011;38063;53.210;6.504;2023-06-10T02:43:22;12.25;;;4.10;;
52057;SDS011;38063;53.210;6.504;2023-06-10T02:45:48;7.95;;;4.20;;
52057;SDS011;38063;53.210;6.504;2023-06-10T02:48:14;11.27;;;4.55;;
52057;SDS011;38063;53.210;6.504;2023-06-10T02:50:39;13.95;;;4.15;;
52057;SDS011;38063;53.210;6.504;2023-06-10T02:53:05;8.30;;;4.45;;
52057;SDS011;38063;53.210;6.504;2023-06-10T02:55:31;10.27;;;4.35;;
52057;SDS011;38063;53.210;6.504;2023-06-10T02:57:57;10.27;;;4.10;;
52057;SDS011;38063;53.210;6.504;2023-06-10T03:00:24;9.23;;;4.20;;
52057;SDS011;38063;53.210;6.504;2023-06-10T03:02:50;8.40;;;4.30;;
52057;SDS011;38063;53.210;6.504;2023-06-10T03:05:16;10.73;;;4.93;;
52057;SDS011;38063;53.210;6.504;2023-06-10T03:07:42;6.40;;;3.83;;
52057;SDS011;38063;53.210;6.504;2023-06-10T03:10:07;7.03;;;3.75;;
52057;SDS011;38063;53.210;6.504;2023-06-10T03:12:33;9.77;;;4.20;;
52057;SDS011;38063;53.210;6.504;2023-06-10T03:14:59;7.07;;;4.43;;
52057;SDS011;38063;53.210;6.504;2023-06-10T03:17:25;13.57;;;4.65;;
52057;SDS011;38063;53.210;6.504;2023-06-10T03:19:50;8.13;;;4.38;;
52057;SDS011;38063;53.210;6.504;2023-06-10T03:22:16;9.38;;;3.50;;
52057;SDS011;38063;53.210;6.504;2023-06-10T03:24:42;9.98;;;4.47;;
52057;SDS011;38063;53.210;6.504;2023-06-10T03:27:09;10.00;;;4.00;;
52057;SDS011;38063;53.210;6.504;2023-06-10T03:29:36;13.43;;;4.47;;
52057;SDS011;38063;53.210;6.504;2023-06-10T03:32:02;10.55;;;4.95;;
52057;SDS011;38063;53.210;6.504;2023-06-10T03:34:28;11.30;;;4.78;;
52057;SDS011;38063;53.210;6.504;2023-06-10T03:36:55;8.57;;;4.70;;
52057;SDS011;38063;53.210;6.504;2023-06-10T03:39:21;12.02;;;4.47;;
52057;SDS011;38063;53.210;6.504;2023-06-10T03:41:48;12.57;;;4.60;;
52057;SDS011;38063;53.210;6.504;2023-06-10T03:44:14;11.38;;;5.38;;
52057;SDS011;38063;53.210;6.504;2023-06-10T03:46:40;12.57;;;5.20;;
52057;SDS011;38063;53.210;6.504;2023-06-10T03:49:05;10.88;;;5.00;;
52057;SDS011;38063;53.210;6.504;2023-06-10T03:51:31;10.82;;;4.97;;
52057;SDS011;38063;53.210;6.504;2023-06-10T03:53:57;12.30;;;5.22;;
52057;SDS011;38063;53.210;6.504;2023-06-10T03:56:22;10.38;;;5.38;;
52057;SDS011;38063;53.210;6.504;2023-06-10T03:58:48;12.10;;;4.95;;
52057;SDS011;38063;53.210;6.504;2023-06-10T04:01:14;9.25;;;4.97;;
52057;SDS011;38063;53.210;6.504;2023-06-10T04:03:40;15.07;;;5.85;;
52057;SDS011;38063;53.210;6.504;2023-06-10T04:06:08;10.30;;;5.22;;
52057;SDS011;38063;53.210;6.504;2023-06-10T04:08:34;13.55;;;5.80;;
52057;SDS011;38063;53.210;6.504;2023-06-10T04:11:01;11.48;;;5.30;;
52057;SDS011;38063;53.210;6.504;2023-06-10T04:13:27;13.55;;;5.55;;
52057;SDS011;38063;53.210;6.504;2023-06-10T04:15:53;14.27;;;6.00;;
52057;SDS011;38063;53.210;6.504;2023-06-10T04:18:19;12.70;;;5.90;;
52057;SDS011;38063;53.210;6.504;2023-06-10T04:20:46;10.63;;;5.97;;
52057;SDS011;38063;53.210;6.504;2023-06-10T04:23:12;19.50;;;6.20;;
52057;SDS011;38063;53.210;6.504;2023-06-10T04:25:38;14.68;;;6.53;;
52057;SDS011;38063;53.210;6.504;2023-06-10T04:28:03;11.98;;;6.00;;
52057;SDS011;38063;53.210;6.504;2023-06-10T04:30:29;17.35;;;6.13;;
52057;SDS011;38063;53.210;6.504;2023-06-10T04:32:56;13.55;;;6.28;;
52057;SDS011;38063;53.210;6.504;2023-06-10T04:35:22;12.98;;;6.22;;
52057;SDS011;38063;53.210;6.504;2023-06-10T04:37:47;14.43;;;6.82;;
52057;SDS011;38063;53.210;6.504;2023-06-10T04:40:13;12.98;;;6.28;;
52057;SDS011;38063;53.210;6.504;2023-06-10T04:42:40;10.10;;;6.22;;
52057;SDS011;38063;53.210;6.504;2023-06-10T04:45:06;15.23;;;6.38;;
52057;SDS011;38063;53.210;6.504;2023-06-10T04:47:33;11.90;;;6.30;;
52057;SDS011;38063;53.210;6.504;2023-06-10T04:49:59;12.80;;;6.30;;
52057;SDS011;38063;53.210;6.504;2023-06-10T04:52:25;15.80;;;6.43;;
52057;SDS011;38063;53.210;6.504;2023-06-10T04:54:52;10.23;;;6.13;;
52057;SDS011;38063;53.210;6.504;2023-06-10T04:57:18;12.77;;;6.18;;
52057;SDS011;38063;53.210;6.504;2023-06-10T04:59:45;17.25;;;6.72;;
52057;SDS011;38063;53.210;6.504;2023-06-10T05:02:11;15.02;;;6.43;;
52057;SDS011;38063;53.210;6.504;2023-06-10T05:04:37;9.77;;;6.20;;
52057;SDS011;38063;53.210;6.504;2023-06-10T05:07:03;14.50;;;6.80;;
52057;SDS011;38063;53.210;6.504;2023-06-10T05:09:28;12.73;;;6.70;;
52057;SDS011;38063;53.210;6.504;2023-06-10T05:11:55;14.52;;;6.50;;
52057;SDS011;38063;53.210;6.504;2023-06-10T05:14:20;12.00;;;5.97;;
52057;SDS011;38063;53.210;6.504;2023-06-10T05:16:47;12.82;;;6.90;;
52057;SDS011;38063;53.210;6.504;2023-06-10T05:19:13;12.25;;;6.60;;
52057;SDS011;38063;53.210;6.504;2023-06-10T05:21:41;10.98;;;6.22;;
52057;SDS011;38063;53.210;6.504;2023-06-10T05:24:07;15.13;;;5.80;;
52057;SDS011;38063;53.210;6.504;2023-06-10T05:26:32;12.40;;;6.60;;
52057;SDS011;38063;53.210;6.504;2023-06-10T05:29:02;12.23;;;6.85;;
52057;SDS011;38063;53.210;6.504;2023-06-10T05:31:28;23.80;;;5.95;;
52057;SDS011;38063;53.210;6.504;2023-06-10T05:33:53;10.15;;;5.45;;
52057;SDS011;38063;53.210;6.504;2023-06-10T05:36:19;12.90;;;6.40;;
52057;SDS011;38063;53.210;6.504;2023-06-10T05:38:45;12.13;;;5.65;;
52057;SDS011;38063;53.210;6.504;2023-06-10T05:41:11;12.63;;;6.18;;
52057;SDS011;38063;53.210;6.504;2023-06-10T05:43:37;13.27;;;5.90;;
52057;SDS011;38063;53.210;6.504;2023-06-10T05:46:03;13.65;;;5.95;;
52057;SDS011;38063;53.210;6.504;2023-06-10T05:48:28;10.95;;;5.72;;
52057;SDS011;38063;53.210;6.504;2023-06-10T05:50:54;13.80;;;5.97;;
52057;SDS011;38063;53.210;6.504;2023-06-10T05:53:20;12.30;;;6.53;;
52057;SDS011;38063;53.210;6.504;2023-06-10T05:55:45;9.38;;;5.15;;
52057;SDS011;38063;53.210;6.504;2023-06-10T05:58:11;12.20;;;5.10;;
52057;SDS011;38063;53.210;6.504;2023-06-10T06:00:39;10.38;;;5.50;;
52057;SDS011;38063;53.210;6.504;2023-06-10T06:03:08;10.90;;;4.78;;
52057;SDS011;38063;53.210;6.504;2023-06-10T06:05:34;12.02;;;5.40;;
52057;SDS011;38063;53.210;6.504;2023-06-10T06:08:02;16.02;;;5.50;;
52057;SDS011;38063;53.210;6.504;2023-06-10T06:10:31;9.07;;;4.80;;
52057;SDS011;38063;53.210;6.504;2023-06-10T06:12:57;11.90;;;5.00;;
52057;SDS011;38063;53.210;6.504;2023-06-10T06:15:23;9.20;;;4.80;;
52057;SDS011;38063;53.210;6.504;2023-06-10T06:17:49;11.05;;;5.45;;
52057;SDS011;38063;53.210;6.504;2023-06-10T06:20:17;10.43;;;5.22;;
52057;SDS011;38063;53.210;6.504;2023-06-10T06:22:43;8.93;;;4.63;;
52057;SDS011;38063;53.210;6.504;2023-06-10T06:25:09;11.18;;;5.22;;
52057;SDS011;38063;53.210;6.504;2023-06-10T06:27:35;12.40;;;5.75;;
52057;SDS011;38063;53.210;6.504;2023-06-10T06:30:00;9.50;;;4.05;;
52057;SDS011;38063;53.210;6.504;2023-06-10T06:32:26;10.85;;;5.35;;
52057;SDS011;38063;53.210;6.504;2023-06-10T06:34:52;9.50;;;4.32;;
52057;SDS011;38063;53.210;6.504;2023-06-10T06:37:22;12.93;;;5.13;;
52057;SDS011;38063;53.210;6.504;2023-06-10T06:39:51;10.40;;;4.70;;
52057;SDS011;38063;53.210;6.504;2023-06-10T06:42:18;10.98;;;4.72;;
52057;SDS011;38063;53.210;6.504;2023-06-10T06:44:44;9.55;;;4.53;;
52057;SDS011;38063;53.210;6.504;2023-06-10T06:47:10;9.38;;;4.65;;
52057;SDS011;38063;53.210;6.504;2023-06-10T06:49:36;10.02;;;4.40;;
52057;SDS011;38063;53.210;6.504;2023-06-10T06:52:02;6.38;;;4.20;;
52057;SDS011;38063;53.210;6.504;2023-06-10T06:54:28;12.02;;;6.18;;
52057;SDS011;38063;53.210;6.504;2023-06-10T06:56:54;9.73;;;4.57;;
52057;SDS011;38063;53.210;6.504;2023-06-10T06:59:20;7.65;;;4.43;;
52057;SDS011;38063;53.210;6.504;2023-06-10T07:01:46;8.65;;;4.53;;
52057;SDS011;38063;53.210;6.504;2023-06-10T07:04:12;12.52;;;5.15;;
52057;SDS011;38063;53.210;6.504;2023-06-10T07:06:39;10.25;;;4.85;;
52057;SDS011;38063;53.210;6.504;2023-06-10T07:09:05;9.02;;;4.35;;
52057;SDS011;38063;53.210;6.504;2023-06-10T07:11:32;8.40;;;4.45;;
52057;SDS011;38063;53.210;6.504;2023-06-10T07:13:58;11.13;;;4.80;;
52057;SDS011;38063;53.210;6.504;2023-06-10T07:16:23;9.85;;;4.28;;
52057;SDS011;38063;53.210;6.504;2023-06-10T07:18:49;7.90;;;4.50;;
52057;SDS011;38063;53.210;6.504;2023-06-10T07:21:15;8.85;;;4.72;;
52057;SDS011;38063;53.210;6.504;2023-06-10T07:23:43;9.57;;;4.00;;
52057;SDS011;38063;53.210;6.504;2023-06-10T07:26:10;9.88;;;4.00;;
52057;SDS011;38063;53.210;6.504;2023-06-10T07:28:39;8.82;;;4.32;;
52057;SDS011;38063;53.210;6.504;2023-06-10T07:31:08;7.50;;;4.07;;
52057;SDS011;38063;53.210;6.504;2023-06-10T07:33:34;7.63;;;4.35;;
52057;SDS011;38063;53.210;6.504;2023-06-10T07:35:59;9.68;;;4.28;;
52057;SDS011;38063;53.210;6.504;2023-06-10T07:38:25;10.65;;;4.35;;
52057;SDS011;38063;53.210;6.504;2023-06-10T07:40:51;11.18;;;3.88;;
52057;SDS011;38063;53.210;6.504;2023-06-10T07:43:18;6.40;;;3.67;;
52057;SDS011;38063;53.210;6.504;2023-06-10T07:45:44;7.45;;;3.47;;
52057;SDS011;38063;53.210;6.504;2023-06-10T07:48:09;7.85;;;4.03;;
52057;SDS011;38063;53.210;6.504;2023-06-10T07:50:35;10.00;;;4.00;;
52057;SDS011;38063;53.210;6.504;2023-06-10T07:53:01;7.57;;;4.10;;
52057;SDS011;38063;53.210;6.504;2023-06-10T07:55:27;10.73;;;4.45;;
52057;SDS011;38063;53.210;6.504;2023-06-10T07:57:53;9.45;;;4.25;;
52057;SDS011;38063;53.210;6.504;2023-06-10T08:00:19;7.10;;;3.80;;
52057;SDS011;38063;53.210;6.504;2023-06-10T08:02:45;7.88;;;4.18;;
52057;SDS011;38063;53.210;6.504;2023-06-10T08:05:12;7.60;;;3.90;;
52057;SDS011;38063;53.210;6.504;2023-06-10T08:07:37;8.30;;;3.60;;
52057;SDS011;38063;53.210;6.504;2023-06-10T08:10:05;11.45;;;3.72;;
52057;SDS011;38063;53.210;6.504;2023-06-10T08:12:31;7.20;;;3.50;;
52057;SDS011;38063;53.210;6.504;2023-06-10T08:14:58;25.88;;;4.93;;
52057;SDS011;38063;53.210;6.504;2023-06-10T08:17:23;14.50;;;3.72;;
52057;SDS011;38063;53.210;6.504;2023-06-10T08:19:49;13.52;;;3.78;;
52057;SDS011;38063;53.210;6.504;2023-06-10T08:22:15;5.80;;;3.53;;
52057;SDS011;38063;53.210;6.504;2023-06-10T08:24:41;9.63;;;3.95;;
52057;SDS011;38063;53.210;6.504;2023-06-10T08:27:07;11.50;;;4.05;;
52057;SDS011;38063;53.210;6.504;2023-06-10T08:29:32;6.72;;;3.90;;
52057;SDS011;38063;53.210;6.504;2023-06-10T08:31:58;7.10;;;3.28;;
52057;SDS011;38063;53.210;6.504;2023-06-10T08:34:24;6.60;;;3.83;;
52057;SDS011;38063;53.210;6.504;2023-06-10T08:36:50;8.65;;;3.20;;
52057;SDS011;38063;53.210;6.504;2023-06-10T08:39:20;6.90;;;3.40;;
52057;SDS011;38063;53.210;6.504;2023-06-10T08:44:35;8.85;;;3.60;;
52057;SDS011;38063;53.210;6.504;2023-06-10T08:47:06;9.10;;;3.63;;
52057;SDS011;38063;53.210;6.504;2023-06-10T08:49:38;9.27;;;3.83;;
52057;SDS011;38063;53.210;6.504;2023-06-10T08:52:08;5.88;;;3.20;;
52057;SDS011;38063;53.210;6.504;2023-06-10T08:54:36;6.90;;;3.42;;
52057;SDS011;38063;53.210;6.504;2023-06-10T08:57:06;5.32;;;3.35;;
52057;SDS011;38063;53.210;6.504;2023-06-10T08:59:32;6.93;;;3.33;;
52057;SDS011;38063;53.210;6.504;2023-06-10T09:01:58;7.97;;;3.40;;
52057;SDS011;38063;53.210;6.504;2023-06-10T09:04:24;6.82;;;3.40;;
52057;SDS011;38063;53.210;6.504;2023-06-10T09:06:50;5.40;;;3.22;;
52057;SDS011;38063;53.210;6.504;2023-06-10T09:09:17;6.18;;;3.20;;
52057;SDS011;38063;53.210;6.504;2023-06-10T09:11:45;7.40;;;3.33;;
52057;SDS011;38063;53.210;6.504;2023-06-10T09:14:11;9.02;;;3.80;;
52057;SDS011;38063;53.210;6.504;2023-06-10T09:16:38;3.70;;;2.90;;
52057;SDS011;38063;53.210;6.504;2023-06-10T09:19:04;6.65;;;3.40;;
52057;SDS011;38063;53.210;6.504;2023-06-10T09:21:33;6.00;;;3.53;;
52057;SDS011;38063;53.210;6.504;2023-06-10T09:24:00;6.97;;;3.10;;
52057;SDS011;38063;53.210;6.504;2023-06-10T09:26:30;5.45;;;3.13;;
52057;SDS011;38063;53.210;6.504;2023-06-10T09:29:05;6.72;;;3.08;;
52057;SDS011;38063;53.210;6.504;2023-06-10T09:31:34;6.25;;;3.13;;
52057;SDS011;38063;53.210;6.504;2023-06-10T09:34:11;6.60;;;3.22;;
52057;SDS011;38063;53.210;6.504;2023-06-10T09:36:38;6.25;;;3.00;;
52057;SDS011;38063;53.210;6.504;2023-06-10T09:39:04;7.18;;;3.40;;
52057;SDS011;38063;53.210;6.504;2023-06-10T09:41:40;7.10;;;3.10;;
52057;SDS011;38063;53.210;6.504;2023-06-10T09:44:11;5.50;;;3.33;;
52057;SDS011;38063;53.210;6.504;2023-06-10T09:46:41;5.63;;;2.92;;
52057;SDS011;38063;53.210;6.504;2023-06-10T09:49:09;4.75;;;3.30;;
52057;SDS011;38063;53.210;6.504;2023-06-10T09:51:35;7.72;;;3.65;;
52057;SDS011;38063;53.210;6.504;2023-06-10T09:54:04;5.35;;;3.13;;
52057;SDS011;38063;53.210;6.504;2023-06-10T09:56:35;6.10;;;3.17;;
52057;SDS011;38063;53.210;6.504;2023-06-10T09:59:02;5.88;;;3.35;;
52057;SDS011;38063;53.210;6.504;2023-06-10T10:01:30;5.63;;;3.47;;
52057;SDS011;38063;53.210;6.504;2023-06-10T10:03:56;7.80;;;3.17;;
52057;SDS011;38063;53.210;6.504;2023-06-10T10:06:25;6.68;;;3.83;;
52057;SDS011;38063;53.210;6.504;2023-06-10T10:08:52;4.85;;;2.95;;
52057;SDS011;38063;53.210;6.504;2023-06-10T10:11:19;4.50;;;2.90;;
52057;SDS011;38063;53.210;6.504;2023-06-10T10:13:50;5.00;;;3.03;;
52057;SDS011;38063;53.210;6.504;2023-06-10T10:16:17;5.68;;;3.35;;
52057;SDS011;38063;53.210;6.504;2023-06-10T10:18:59;10.85;;;3.80;;
52057;SDS011;38063;53.210;6.504;2023-06-10T10:21:31;5.07;;;2.95;;
52057;SDS011;38063;53.210;6.504;2023-06-10T10:24:38;7.15;;;3.33;;
52057;SDS011;38063;53.210;6.504;2023-06-10T10:27:01;6.28;;;3.25;;
52057;SDS011;38063;53.210;6.504;2023-06-10T10:29:37;10.93;;;3.30;;
52057;SDS011;38063;53.210;6.504;2023-06-10T10:32:04;6.07;;;2.90;;
52057;SDS011;38063;53.210;6.504;2023-06-10T10:37:09;6.68;;;3.45;;
52057;SDS011;38063;53.210;6.504;2023-06-10T10:39:35;6.57;;;3.40;;
52057;SDS011;38063;53.210;6.504;2023-06-10T10:42:01;13.20;;;3.90;;
52057;SDS011;38063;53.210;6.504;2023-06-10T10:44:29;4.95;;;3.00;;
52057;SDS011;38063;53.210;6.504;2023-06-10T10:46:55;11.23;;;3.55;;
52057;SDS011;38063;53.210;6.504;2023-06-10T10:49:23;4.65;;;2.90;;
52057;SDS011;38063;53.210;6.504;2023-06-10T10:51:56;8.15;;;4.18;;
52057;SDS011;38063;53.210;6.504;2023-06-10T10:54:28;8.27;;;3.97;;
52057;SDS011;38063;53.210;6.504;2023-06-10T10:59:43;5.70;;;3.58;;
52057;SDS011;38063;53.210;6.504;2023-06-10T11:02:08;6.85;;;3.33;;
52057;SDS011;38063;53.210;6.504;2023-06-10T11:04:35;7.78;;;3.20;;
52057;SDS011;38063;53.210;6.504;2023-06-10T11:07:07;7.65;;;3.40;;
52057;SDS011;38063;53.210;6.504;2023-06-10T11:09:33;7.50;;;3.67;;
52057;SDS011;38063;53.210;6.504;2023-06-10T11:11:58;6.97;;;3.63;;
52057;SDS011;38063;53.210;6.504;2023-06-10T11:14:28;6.13;;;3.10;;
52057;SDS011;38063;53.210;6.504;2023-06-10T11:16:58;8.27;;;3.67;;
52057;SDS011;38063;53.210;6.504;2023-06-10T11:19:38;7.57;;;3.95;;
52057;SDS011;38063;53.210;6.504;2023-06-10T11:22:06;4.05;;;2.90;;
52057;SDS011;38063;53.210;6.504;2023-06-10T11:24:32;6.80;;;3.28;;
52057;SDS011;38063;53.210;6.504;2023-06-10T11:32:31;5.18;;;3.10;;
52057;SDS011;38063;53.210;6.504;2023-06-10T11:34:58;6.57;;;2.97;;
52057;SDS011;38063;53.210;6.504;2023-06-10T11:37:24;7.50;;;2.90;;
52057;SDS011;38063;53.210;6.504;2023-06-10T11:39:56;5.93;;;2.90;;
52057;SDS011;38063;53.210;6.504;2023-06-10T11:42:23;5.38;;;3.00;;
52057;SDS011;38063;53.210;6.504;2023-06-10T11:44:49;5.38;;;2.80;;
52057;SDS011;38063;53.210;6.504;2023-06-10T11:47:16;3.88;;;2.65;;
52057;SDS011;38063;53.210;6.504;2023-06-10T11:49:46;5.03;;;2.97;;
52057;SDS011;38063;53.210;6.504;2023-06-10T11:52:31;7.57;;;2.80;;
52057;SDS011;38063;53.210;6.504;2023-06-10T11:54:58;6.43;;;2.80;;
52057;SDS011;38063;53.210;6.504;2023-06-10T11:57:24;5.13;;;2.83;;
52057;SDS011;38063;53.210;6.504;2023-06-10T11:59:50;4.75;;;2.78;;
52057;SDS011;38063;53.210;6.504;2023-06-10T12:02:16;6.85;;;3.67;;
52057;SDS011;38063;53.210;6.504;2023-06-10T12:04:42;9.18;;;3.70;;
52057;SDS011;38063;53.210;6.504;2023-06-10T12:07:07;7.07;;;3.50;;
52057;SDS011;38063;53.210;6.504;2023-06-10T12:09:33;7.20;;;3.00;;
52057;SDS011;38063;53.210;6.504;2023-06-10T12:12:00;4.32;;;3.03;;
52057;SDS011;38063;53.210;6.504;2023-06-10T12:17:23;9.32;;;2.78;;
52057;SDS011;38063;53.210;6.504;2023-06-10T12:19:55;4.85;;;2.67;;
52057;SDS011;38063;53.210;6.504;2023-06-10T12:22:22;5.28;;;2.88;;
52057;SDS011;38063;53.210;6.504;2023-06-10T12:24:59;6.32;;;2.92;;
52057;SDS011;38063;53.210;6.504;2023-06-10T12:27:27;8.63;;;3.05;;
52057;SDS011;38063;53.210;6.504;2023-06-10T12:29:54;4.03;;;2.50;;
52057;SDS011;38063;53.210;6.504;2023-06-10T12:32:34;4.85;;;2.90;;
52057;SDS011;38063;53.210;6.504;2023-06-10T12:35:04;5.43;;;3.00;;
52057;SDS011;38063;53.210;6.504;2023-06-10T12:37:30;9.38;;;2.88;;
52057;SDS011;38063;53.210;6.504;2023-06-10T12:39:59;6.22;;;3.08;;
52057;SDS011;38063;53.210;6.504;2023-06-10T12:42:28;8.48;;;3.20;;
52057;SDS011;38063;53.210;6.504;2023-06-10T12:44:55;5.43;;;2.53;;
52057;SDS011;38063;53.210;6.504;2023-06-10T12:47:32;6.28;;;3.10;;
52057;SDS011;38063;53.210;6.504;2023-06-10T12:50:03;5.50;;;3.20;;
52057;SDS011;38063;53.210;6.504;2023-06-10T12:52:29;5.50;;;2.65;;
52057;SDS011;38063;53.210;6.504;2023-06-10T12:54:55;4.85;;;3.03;;
52057;SDS011;38063;53.210;6.504;2023-06-10T12:57:22;7.18;;;3.08;;
52057;SDS011;38063;53.210;6.504;2023-06-10T12:59:48;5.32;;;3.50;;
52057;SDS011;38063;53.210;6.504;2023-06-10T13:02:25;6.55;;;3.05;;
52057;SDS011;38063;53.210;6.504;2023-06-10T13:04:51;7.80;;;3.03;;
52057;SDS011;38063;53.210;6.504;2023-06-10T13:07:17;7.60;;;3.35;;
52057;SDS011;38063;53.210;6.504;2023-06-10T13:09:42;5.47;;;3.08;;
52057;SDS011;38063;53.210;6.504;2023-06-10T13:12:09;7.55;;;3.08;;
52057;SDS011;38063;53.210;6.504;2023-06-10T13:14:36;5.30;;;3.00;;
52057;SDS011;38063;53.210;6.504;2023-06-10T13:17:03;10.70;;;3.42;;
52057;SDS011;38063;53.210;6.504;2023-06-10T13:19:31;6.55;;;3.10;;
52057;SDS011;38063;53.210;6.504;2023-06-10T13:21:57;5.28;;;3.28;;
52057;SDS011;38063;53.210;6.504;2023-06-10T13:24:23;9.90;;;3.30;;
52057;SDS011;38063;53.210;6.504;2023-06-10T13:26:49;7.15;;;3.80;;
52057;SDS011;38063;53.210;6.504;2023-06-10T13:29:14;8.10;;;3.30;;
52057;SDS011;38063;53.210;6.504;2023-06-10T13:31:40;7.25;;;3.25;;
52057;SDS011;38063;53.210;6.504;2023-06-10T13:34:06;4.97;;;2.83;;
52057;SDS011;38063;53.210;6.504;2023-06-10T13:36:32;7.55;;;3.28;;
52057;SDS011;38063;53.210;6.504;2023-06-10T13:38:58;6.47;;;3.10;;
52057;SDS011;38063;53.210;6.504;2023-06-10T13:41:23;9.05;;;3.40;;
52057;SDS011;38063;53.210;6.504;2023-06-10T13:43:49;3.97;;;2.75;;
52057;SDS011;38063;53.210;6.504;2023-06-10T13:46:15;4.85;;;3.25;;
52057;SDS011;38063;53.210;6.504;2023-06-10T13:48:41;6.30;;;3.20;;
52057;SDS011;38063;53.210;6.504;2023-06-10T13:51:07;5.45;;;3.40;;
52057;SDS011;38063;53.210;6.504;2023-06-10T13:53:34;8.25;;;3.28;;
52057;SDS011;38063;53.210;6.504;2023-06-10T13:56:00;4.40;;;2.80;;
52057;SDS011;38063;53.210;6.504;2023-06-10T13:58:25;7.78;;;3.22;;
52057;SDS011;38063;53.210;6.504;2023-06-10T14:00:51;5.50;;;2.67;;
52057;SDS011;38063;53.210;6.504;2023-06-10T14:03:17;5.22;;;2.60;;
52057;SDS011;38063;53.210;6.504;2023-06-10T14:05:43;6.78;;;2.50;;
52057;SDS011;38063;53.210;6.504;2023-06-10T14:08:08;7.72;;;2.95;;
52057;SDS011;38063;53.210;6.504;2023-06-10T14:10:34;4.57;;;2.72;;
52057;SDS011;38063;53.210;6.504;2023-06-10T14:13:00;6.32;;;2.85;;
52057;SDS011;38063;53.210;6.504;2023-06-10T14:15:25;7.22;;;2.95;;
52057;SDS011;38063;53.210;6.504;2023-06-10T14:17:51;6.25;;;2.67;;
52057;SDS011;38063;53.210;6.504;2023-06-10T14:20:17;4.03;;;2.72;;
52057;SDS011;38063;53.210;6.504;2023-06-10T14:22:42;6.30;;;3.20;;
52057;SDS011;38063;53.210;6.504;2023-06-10T14:25:08;6.65;;;2.85;;
52057;SDS011;38063;53.210;6.504;2023-06-10T14:27:33;3.70;;;2.85;;
52057;SDS011;38063;53.210;6.504;2023-06-10T14:29:59;6.10;;;2.65;;
52057;SDS011;38063;53.210;6.504;2023-06-10T14:32:25;6.38;;;3.08;;
52057;SDS011;38063;53.210;6.504;2023-06-10T14:34:51;7.20;;;2.55;;
52057;SDS011;38063;53.210;6.504;2023-06-10T14:37:16;4.75;;;2.72;;
52057;SDS011;38063;53.210;6.504;2023-06-10T14:39:42;6.60;;;2.72;;
52057;SDS011;38063;53.210;6.504;2023-06-10T14:42:08;6.20;;;2.92;;
52057;SDS011;38063;53.210;6.504;2023-06-10T14:44:33;5.30;;;2.40;;
52057;SDS011;38063;53.210;6.504;2023-06-10T14:46:59;5.05;;;2.83;;
52057;SDS011;38063;53.210;6.504;2023-06-10T14:49:25;3.92;;;2.13;;
52057;SDS011;38063;53.210;6.504;2023-06-10T14:51:50;3.88;;;2.40;;
52057;SDS011;38063;53.210;6.504;2023-06-10T14:54:16;4.97;;;2.05;;
52057;SDS011;38063;53.210;6.504;2023-06-10T14:56:42;5.35;;;2.22;;
52057;SDS011;38063;53.210;6.504;2023-06-10T14:59:08;4.75;;;2.90;;
52057;SDS011;38063;53.210;6.504;2023-06-10T15:01:33;4.20;;;2.60;;
52057;SDS011;38063;53.210;6.504;2023-06-10T15:03:59;3.85;;;2.42;;